Latest Weather Observations for Thursday Island

IDQ60801

Issued at 10:13 pm EST Monday 26 September 2022 (issued every 10 minutes, with the page automatically refreshed every 10 minutes)

About weather observations | Map of weather stations | Latest weather observations for QLD | Other Formats
Station Details ID: 200892 Name: TORRES STRAIT NTC AWS Lat: -10.59 Lon: 142.22 Height: 3.0 m
Data from the previous 72 hours. | See also: Recent months for locations in Queensland
Date/Time
EST
Temp
°C
App
Temp
°C
Dew
Point
°C
Rel
Hum
%
Delta-T
°C
Wind Press
QNH
hPa
Press
MSL
hPa
Rain since
9am
mm
Dir  Spd
km/h
Gust
km/h
Spd
kts
Gust
kts
26/10:00pm - - - - - ESE 28 37 15 20 1008.9 1008.9 -
26/09:30pm - - - - - ESE 26 35 14 19 1008.6 1008.6 -
26/09:00pm - - - - - ESE 26 35 14 19 1008.4 1008.4 -
26/08:30pm - - - - - SE 24 33 13 18 1008.0 1008.0 -
26/08:00pm - - - - - SE 30 37 16 20 1007.7 1007.7 -
26/07:30pm - - - - - ESE 24 33 13 18 1007.4 1007.4 -
26/07:00pm - - - - - ESE 28 39 15 21 1007.2 1007.2 -
26/06:30pm - - - - - ESE 28 33 15 18 1006.7 1006.7 -
26/06:00pm - - - - - ESE 28 37 15 20 1006.3 1006.3 -
26/05:30pm - - - - - ESE 30 39 16 21 1006.0 1006.0 -
26/05:00pm - - - - - ESE 30 39 16 21 1006.0 1006.0 -
26/04:30pm - - - - - ESE 30 43 16 23 1006.0 1006.0 -
26/04:00pm - - - - - ESE 32 44 17 24 1006.0 1006.0 -
26/03:30pm - - - - - ESE 35 46 19 25 1006.0 1006.0 -
26/03:00pm - - - - - ESE 35 43 19 23 1006.2 1006.2 -
26/02:30pm - - - - - ESE 35 46 19 25 1006.4 1006.4 -
26/02:00pm - - - - - ESE 35 50 19 27 1006.8 1006.8 -
26/01:30pm - - - - - ESE 35 46 19 25 1007.2 1007.2 -
26/01:00pm - - - - - ESE 35 44 19 24 1007.7 1007.7 -
26/12:30pm - - - - - ESE 41 52 22 28 1008.3 1008.3 -
26/12:00pm - - - - - ESE 37 50 20 27 1008.7 1008.7 -
26/11:30am - - - - - ESE 39 52 21 28 1009.2 1009.2 -
26/11:00am - - - - - ESE 39 50 21 27 1009.7 1009.7 -
26/10:44am - - - - - ESE 37 56 20 30 1009.5 1009.5 -
26/10:30am - - - - - ESE 35 52 19 28 1009.6 1009.6 -
26/10:25am - - - - - ESE 33 52 18 28 1009.7 1009.7 -
26/10:00am - - - - - ESE 33 44 18 24 1010.1 1010.1 -
26/09:42am - - - - - ESE 33 52 18 28 1010.2 1010.2 -
26/09:30am - - - - - E 39 50 21 27 1010.0 1010.0 -
26/09:00am - - - - - ESE 33 44 18 24 1009.7 1009.7 -
26/08:30am - - - - - ESE 33 44 18 24 1009.7 1009.7 -
26/08:00am - - - - - ESE 28 39 15 21 1009.3 1009.3 -
26/07:30am - - - - - ESE 28 35 15 19 1008.8 1008.8 -
26/07:00am - - - - - ESE 28 37 15 20 1008.3 1008.3 -
26/06:30am - - - - - ESE 26 33 14 18 1008.1 1008.1 -
26/06:00am - - - - - ESE 26 33 14 18 1007.8 1007.8 -
26/05:30am - - - - - SE 24 30 13 16 1007.8 1007.8 -
26/05:00am - - - - - ESE 26 33 14 18 1007.7 1007.7 -
26/04:30am - - - - - SE 26 33 14 18 1007.5 1007.5 -
26/04:00am - - - - - SE 24 30 13 16 1007.4 1007.4 -
26/03:30am - - - - - SE 22 33 12 18 1007.4 1007.4 -
26/03:00am - - - - - SE 28 35 15 19 1007.2 1007.2 -
26/02:30am - - - - - SE 24 32 13 17 1007.5 1007.5 -
26/02:00am - - - - - SE 24 32 13 17 1007.8 1007.8 -
26/01:30am - - - - - SE 24 35 13 19 1008.5 1008.5 -
26/01:00am - - - - - SE 24 32 13 17 1008.9 1008.9 -
26/12:30am - - - - - SE 24 32 13 17 1009.2 1009.2 -
26/12:00am - - - - - SE 22 32 12 17 1009.1 1009.1 -
 
Date/Time
EST
Temp
°C
App
Temp
°C
Dew
Point
°C
Rel
Hum
%
Delta-T
°C
Wind Press
QNH
hPa
Press
MSL
hPa
Rain since
9am
mm
Dir  Spd
km/h
Gust
km/h
Spd
kts
Gust
kts
25/11:30pm - - - - - SE 24 32 13 17 1009.2 1009.2 -
25/11:00pm - - - - - SE 26 33 14 18 1009.2 1009.2 -
25/10:30pm - - - - - SE 26 33 14 18 1009.3 1009.3 -
25/10:00pm - - - - - SE 26 39 14 21 1009.3 1009.3 -
25/09:30pm - - - - - SE 24 35 13 19 1009.1 1009.1 -
25/09:00pm - - - - - SE 30 39 16 21 1008.7 1008.7 -
25/08:30pm - - - - - SE 30 39 16 21 1008.6 1008.6 -
25/08:00pm - - - - - SE 28 37 15 20 1008.5 1008.5 -
25/07:30pm - - - - - SE 26 35 14 19 1008.0 1008.0 -
25/07:00pm - - - - - SE 26 35 14 19 1007.6 1007.6 -
25/06:30pm - - - - - ESE 28 37 15 20 1007.3 1007.3 -
25/06:00pm - - - - - ESE 30 41 16 22 1007.1 1007.1 -
25/05:30pm - - - - - ESE 37 48 20 26 1006.7 1006.7 -
25/05:00pm - - - - - ESE 33 43 18 23 1006.3 1006.3 -
25/04:30pm - - - - - SE 37 46 20 25 1006.2 1006.2 -
25/04:00pm - - - - - ESE 35 48 19 26 1006.2 1006.2 -
25/03:30pm - - - - - SE 39 52 21 28 1006.4 1006.4 -
25/03:00pm - - - - - ESE 41 50 22 27 1006.7 1006.7 -
25/02:30pm - - - - - ESE 37 48 20 26 1007.0 1007.0 -
25/02:00pm - - - - - ESE 35 46 19 25 1007.2 1007.2 -
25/01:30pm - - - - - ESE 39 48 21 26 1007.5 1007.5 -
25/01:00pm - - - - - ESE 37 48 20 26 1008.0 1008.0 -
25/12:30pm - - - - - ESE 35 44 19 24 1008.6 1008.6 -
25/12:00pm - - - - - ESE 33 44 18 24 1009.2 1009.2 -
25/11:30am - - - - - ESE 33 43 18 23 1009.7 1009.7 -
25/11:00am - - - - - SE 33 43 18 23 1009.9 1009.9 -
25/10:30am - - - - - ESE 30 44 16 24 1010.1 1010.1 -
25/10:00am - - - - - SE 26 35 14 19 1010.1 1010.1 -
25/09:30am - - - - - SE 22 28 12 15 1010.2 1010.2 -
25/09:00am - - - - - SE 22 30 12 16 1010.3 1010.3 -
25/08:30am - - - - - SE 20 28 11 15 1010.1 1010.1 -
25/08:00am - - - - - SE 20 26 11 14 1009.7 1009.7 -
25/07:30am - - - - - SE 20 26 11 14 1009.1 1009.1 -
25/07:00am - - - - - SE 20 26 11 14 1008.8 1008.8 -
25/06:30am - - - - - SE 20 26 11 14 1008.6 1008.6 -
25/06:00am - - - - - SE 19 24 10 13 1008.3 1008.3 -
25/05:30am - - - - - SE 19 22 10 12 1008.1 1008.1 -
25/05:00am - - - - - SE 19 24 10 13 1007.8 1007.8 -
25/04:30am - - - - - SE 19 22 10 12 1007.7 1007.7 -
25/04:00am - - - - - SE 15 19 8 10 1007.6 1007.6 -
25/03:30am - - - - - SE 17 22 9 12 1007.5 1007.5 -
25/03:00am - - - - - SE 20 26 11 14 1007.8 1007.8 -
25/02:30am - - - - - SE 20 28 11 15 1008.0 1008.0 -
25/02:00am - - - - - SE 20 26 11 14 1008.3 1008.3 -
25/01:30am - - - - - SE 20 26 11 14 1008.6 1008.6 -
25/01:00am - - - - - SE 17 22 9 12 1008.9 1008.9 -
25/12:30am - - - - - SE 19 24 10 13 1009.4 1009.4 -
25/12:00am - - - - - SE 19 24 10 13 1009.7 1009.7 -
 
Date/Time
EST
Temp
°C
App
Temp
°C
Dew
Point
°C
Rel
Hum
%
Delta-T
°C
Wind Press
QNH
hPa
Press
MSL
hPa
Rain since
9am
mm
Dir  Spd
km/h
Gust
km/h
Spd
kts
Gust
kts
24/11:30pm - - - - - SE 19 24 10 13 1009.8 1009.8 -
24/11:00pm - - - - - SE 19 24 10 13 1009.8 1009.8 -
24/10:30pm - - - - - SE 17 20 9 11 1009.8 1009.8 -
24/10:00pm - - - - - SE 17 20 9 11 1009.9 1009.9 -
24/09:30pm - - - - - ESE 19 26 10 14 1009.6 1009.6 -
24/09:00pm - - - - - SE 15 20 8 11 1009.3 1009.3 -
24/08:30pm - - - - - SE 19 26 10 14 1009.0 1009.0 -
24/08:00pm - - - - - SE 20 28 11 15 1008.6 1008.6 -
24/07:30pm - - - - - SE 17 22 9 12 1008.3 1008.3 -
24/07:00pm - - - - - ESE 17 20 9 11 1007.9 1007.9 -
24/06:30pm - - - - - ESE 19 26 10 14 1007.5 1007.5 -
24/06:00pm - - - - - ESE 20 24 11 13 1007.1 1007.1 -
24/05:30pm - - - - - E 20 24 11 13 1006.8 1006.8 -
24/05:00pm - - - - - E 19 22 10 12 1006.6 1006.6 -
24/04:30pm - - - - - ENE 20 26 11 14 1006.5 1006.5 -
24/04:00pm - - - - - ENE 24 30 13 16 1006.5 1006.5 -
24/03:30pm - - - - - ENE 26 30 14 16 1006.4 1006.4 -
24/03:00pm - - - - - ENE 26 28 14 15 1006.7 1006.7 -
24/02:30pm - - - - - ENE 28 32 15 17 1007.1 1007.1 -
24/02:00pm - - - - - ENE 28 32 15 17 1007.2 1007.2 -
24/01:30pm - - - - - ENE 26 30 14 16 1007.5 1007.5 -
24/01:00pm - - - - - ENE 26 30 14 16 1007.9 1007.9 -
24/12:30pm - - - - - ENE 30 33 16 18 1008.6 1008.6 -
24/12:00pm - - - - - ENE 28 32 15 17 1009.1 1009.1 -
24/11:30am - - - - - NE 22 28 12 15 1009.5 1009.5 -
24/11:00am - - - - - ENE 19 24 10 13 1010.1 1010.1 -
24/10:30am - - - - - ENE 19 24 10 13 1010.4 1010.4 -
24/10:00am - - - - - ENE 20 26 11 14 1010.7 1010.7 -
24/09:30am - - - - - E 15 19 8 10 1010.7 1010.7 -
24/09:00am - - - - - ESE 11 15 6 8 1010.6 1010.6 -
24/08:30am - - - - - ESE 13 17 7 9 1010.4 1010.4 -
24/08:00am - - - - - SE 9 11 5 6 1010.2 1010.2 -
24/07:30am - - - - - SE 9 11 5 6 1009.7 1009.7 -
24/07:00am - - - - - SE 9 13 5 7 1009.2 1009.2 -
24/06:30am - - - - - SE 11 13 6 7 1009.0 1009.0 -
24/06:00am - - - - - SE 11 15 6 8 1008.7 1008.7 -
24/05:30am - - - - - SE 13 17 7 9 1008.6 1008.6 -
24/05:00am - - - - - SE 11 13 6 7 1008.5 1008.5 -
24/04:30am - - - - - SE 9 13 5 7 1008.4 1008.4 -
24/04:00am - - - - - SE 13 15 7 8 1008.4 1008.4 -
24/03:30am - - - - - SE 11 13 6 7 1008.6 1008.6 -
24/03:00am - - - - - SE 13 15 7 8 1008.5 1008.5 -
24/02:30am - - - - - SE 11 15 6 8 1008.7 1008.7 -
24/02:00am - - - - - SE 11 13 6 7 1008.8 1008.8 -
24/01:30am - - - - - SE 9 11 5 6 1009.2 1009.2 -
24/01:00am - - - - - SE 11 13 6 7 1009.4 1009.4 -
24/12:30am - - - - - SE 11 13 6 7 1009.7 1009.7 -
24/12:00am - - - - - ESE 11 13 6 7 1010.2 1010.2 -
 
Date/Time
EST
Temp
°C
App
Temp
°C
Dew
Point
°C
Rel
Hum
%
Delta-T
°C
Wind Press
QNH
hPa
Press
MSL
hPa
Rain since
9am
mm
Dir  Spd
km/h
Gust
km/h
Spd
kts
Gust
kts
23/11:30pm - - - - - ESE 11 13 6 7 1010.4 1010.4 -
23/11:00pm - - - - - SE 13 17 7 9 1010.3 1010.3 -
23/10:30pm - - - - - SE 11 13 6 7 1010.2 1010.2 -

Other formats

Comma delimited format used in spreadsheet applications
http://www.bom.gov.au/fwo/IDQ60801/IDQ60801.94181.axf

JavaScript Object Notation format (JSON) in row-major order
http://www.bom.gov.au/fwo/IDQ60801/IDQ60801.94181.json

Data quality

Most of these data are generated automatically and are frequently updated. Quality checks on data are not normally performed. It is possible for incorrect values to appear. Refer to information at About Latest Weather Observations and please check the disclaimer before using these data.